sensor_id;sensor_type;location;lat;lon;timestamp;temperature;humidity
2623;DHT22;1321;48.690;9.022;2022-12-07T00:01:44;4.60;1.00
2623;DHT22;1321;48.690;9.022;2022-12-07T00:04:14;4.60;1.00
2623;DHT22;1321;48.690;9.022;2022-12-07T00:06:44;4.70;1.00
2623;DHT22;1321;48.690;9.022;2022-12-07T00:09:15;4.70;1.00
2623;DHT22;1321;48.690;9.022;2022-12-07T00:11:45;4.60;1.00
2623;DHT22;1321;48.690;9.022;2022-12-07T00:14:16;4.70;1.00
2623;DHT22;1321;48.690;9.022;2022-12-07T00:16:45;4.70;1.00
2623;DHT22;1321;48.690;9.022;2022-12-07T00:19:13;4.70;1.00
2623;DHT22;1321;48.690;9.022;2022-12-07T00:21:42;4.80;1.00
2623;DHT22;1321;48.690;9.022;2022-12-07T00:24:11;4.70;1.00
2623;DHT22;1321;48.690;9.022;2022-12-07T00:26:41;4.80;1.00
2623;DHT22;1321;48.690;9.022;2022-12-07T00:29:15;4.70;1.00
2623;DHT22;1321;48.690;9.022;2022-12-07T00:31:43;4.70;1.00
2623;DHT22;1321;48.690;9.022;2022-12-07T00:34:13;4.70;1.00
2623;DHT22;1321;48.690;9.022;2022-12-07T00:36:42;4.70;1.00
2623;DHT22;1321;48.690;9.022;2022-12-07T00:39:10;4.70;1.00
2623;DHT22;1321;48.690;9.022;2022-12-07T00:41:40;4.70;1.00
2623;DHT22;1321;48.690;9.022;2022-12-07T00:44:08;4.70;1.00
2623;DHT22;1321;48.690;9.022;2022-12-07T00:46:37;4.70;1.00
2623;DHT22;1321;48.690;9.022;2022-12-07T00:49:05;4.70;1.00
2623;DHT22;1321;48.690;9.022;2022-12-07T00:51:33;4.60;1.00
2623;DHT22;1321;48.690;9.022;2022-12-07T00:54:01;4.70;1.00
2623;DHT22;1321;48.690;9.022;2022-12-07T00:56:30;4.80;1.00
2623;DHT22;1321;48.690;9.022;2022-12-07T00:59:01;4.70;1.00
2623;DHT22;1321;48.690;9.022;2022-12-07T01:01:31;4.60;1.00
2623;DHT22;1321;48.690;9.022;2022-12-07T01:04:01;4.70;1.00
2623;DHT22;1321;48.690;9.022;2022-12-07T01:06:30;4.60;1.00
2623;DHT22;1321;48.690;9.022;2022-12-07T01:08:59;4.70;1.00
2623;DHT22;1321;48.690;9.022;2022-12-07T01:11:28;4.70;1.00
2623;DHT22;1321;48.690;9.022;2022-12-07T01:13:59;4.70;1.00
2623;DHT22;1321;48.690;9.022;2022-12-07T01:16:29;4.70;1.00
2623;DHT22;1321;48.690;9.022;2022-12-07T01:18:58;4.70;1.00
2623;DHT22;1321;48.690;9.022;2022-12-07T01:21:28;4.70;1.00
2623;DHT22;1321;48.690;9.022;2022-12-07T01:23:57;4.60;1.00
2623;DHT22;1321;48.690;9.022;2022-12-07T01:26:26;4.70;1.00
2623;DHT22;1321;48.690;9.022;2022-12-07T01:28:54;4.60;1.00
2623;DHT22;1321;48.690;9.022;2022-12-07T01:31:27;4.60;1.00
2623;DHT22;1321;48.690;9.022;2022-12-07T01:33:57;4.80;1.00
2623;DHT22;1321;48.690;9.022;2022-12-07T01:36:28;4.70;99.90
2623;DHT22;1321;48.690;9.022;2022-12-07T01:38:58;4.70;99.90
2623;DHT22;1321;48.690;9.022;2022-12-07T01:41:32;4.70;99.90
2623;DHT22;1321;48.690;9.022;2022-12-07T01:44:16;4.70;99.90
2623;DHT22;1321;48.690;9.022;2022-12-07T01:46:47;4.70;99.90
2623;DHT22;1321;48.690;9.022;2022-12-07T01:49:23;4.70;99.90
2623;DHT22;1321;48.690;9.022;2022-12-07T01:51:57;4.70;99.90
2623;DHT22;1321;48.690;9.022;2022-12-07T01:54:26;4.70;99.90
2623;DHT22;1321;48.690;9.022;2022-12-07T01:56:56;4.70;99.90
2623;DHT22;1321;48.690;9.022;2022-12-07T01:59:25;4.70;99.90
2623;DHT22;1321;48.690;9.022;2022-12-07T02:01:56;4.60;99.90
2623;DHT22;1321;48.690;9.022;2022-12-07T02:04:25;4.60;99.90
2623;DHT22;1321;48.690;9.022;2022-12-07T02:06:54;4.60;99.90
2623;DHT22;1321;48.690;9.022;2022-12-07T02:09:22;4.50;99.90
2623;DHT22;1321;48.690;9.022;2022-12-07T02:11:51;4.50;99.90
2623;DHT22;1321;48.690;9.022;2022-12-07T02:14:20;4.50;99.90
2623;DHT22;1321;48.690;9.022;2022-12-07T02:16:59;4.50;99.90
2623;DHT22;1321;48.690;9.022;2022-12-07T02:20:11;4.50;99.90
2623;DHT22;1321;48.690;9.022;2022-12-07T02:23:07;4.50;99.90
2623;DHT22;1321;48.690;9.022;2022-12-07T02:25:58;4.40;99.90
2623;DHT22;1321;48.690;9.022;2022-12-07T02:28:32;4.40;99.90
2623;DHT22;1321;48.690;9.022;2022-12-07T02:31:07;4.40;99.90
2623;DHT22;1321;48.690;9.022;2022-12-07T02:33:41;4.40;99.90
2623;DHT22;1321;48.690;9.022;2022-12-07T02:36:14;4.40;99.90
2623;DHT22;1321;48.690;9.022;2022-12-07T02:38:49;4.40;99.90
2623;DHT22;1321;48.690;9.022;2022-12-07T02:41:23;4.30;99.90
2623;DHT22;1321;48.690;9.022;2022-12-07T02:43:54;4.40;99.90
2623;DHT22;1321;48.690;9.022;2022-12-07T02:46:28;4.30;99.90
2623;DHT22;1321;48.690;9.022;2022-12-07T02:48:58;4.40;99.90
2623;DHT22;1321;48.690;9.022;2022-12-07T02:51:30;4.40;99.90
2623;DHT22;1321;48.690;9.022;2022-12-07T02:53:58;4.40;99.90
2623;DHT22;1321;48.690;9.022;2022-12-07T02:56:34;4.40;99.90
2623;DHT22;1321;48.690;9.022;2022-12-07T02:59:13;4.40;99.90
2623;DHT22;1321;48.690;9.022;2022-12-07T03:01:52;4.40;99.90
2623;DHT22;1321;48.690;9.022;2022-12-07T03:04:35;4.30;99.90
2623;DHT22;1321;48.690;9.022;2022-12-07T03:07:14;4.40;99.90
2623;DHT22;1321;48.690;9.022;2022-12-07T03:09:52;4.40;99.90
2623;DHT22;1321;48.690;9.022;2022-12-07T03:12:27;4.40;99.90
2623;DHT22;1321;48.690;9.022;2022-12-07T03:15:02;4.30;99.90
2623;DHT22;1321;48.690;9.022;2022-12-07T03:17:35;4.40;99.90
2623;DHT22;1321;48.690;9.022;2022-12-07T03:20:10;4.40;99.90
2623;DHT22;1321;48.690;9.022;2022-12-07T03:22:42;4.40;99.90
2623;DHT22;1321;48.690;9.022;2022-12-07T03:25:14;4.40;64.10
2623;DHT22;1321;48.690;9.022;2022-12-07T03:27:47;4.30;99.90
2623;DHT22;1321;48.690;9.022;2022-12-07T03:30:19;4.30;99.90
2623;DHT22;1321;48.690;9.022;2022-12-07T03:32:52;4.40;99.90
2623;DHT22;1321;48.690;9.022;2022-12-07T03:35:25;4.40;99.90
2623;DHT22;1321;48.690;9.022;2022-12-07T03:37:57;4.40;99.90
2623;DHT22;1321;48.690;9.022;2022-12-07T03:40:32;4.50;99.90
2623;DHT22;1321;48.690;9.022;2022-12-07T03:43:03;4.40;99.90
2623;DHT22;1321;48.690;9.022;2022-12-07T03:45:38;4.40;99.90
2623;DHT22;1321;48.690;9.022;2022-12-07T03:48:16;4.30;99.90
2623;DHT22;1321;48.690;9.022;2022-12-07T03:50:52;4.40;99.90
2623;DHT22;1321;48.690;9.022;2022-12-07T03:53:24;4.40;99.90
2623;DHT22;1321;48.690;9.022;2022-12-07T03:55:58;4.40;99.90
2623;DHT22;1321;48.690;9.022;2022-12-07T03:58:27;4.30;99.90
2623;DHT22;1321;48.690;9.022;2022-12-07T04:00:55;4.30;99.90
2623;DHT22;1321;48.690;9.022;2022-12-07T04:03:25;4.30;99.90
2623;DHT22;1321;48.690;9.022;2022-12-07T04:05:53;4.30;99.90
2623;DHT22;1321;48.690;9.022;2022-12-07T04:08:22;4.30;99.90
2623;DHT22;1321;48.690;9.022;2022-12-07T04:10:50;4.30;99.90
2623;DHT22;1321;48.690;9.022;2022-12-07T04:13:19;4.30;99.90
2623;DHT22;1321;48.690;9.022;2022-12-07T04:15:47;4.30;99.90
2623;DHT22;1321;48.690;9.022;2022-12-07T04:18:15;4.30;99.90
2623;DHT22;1321;48.690;9.022;2022-12-07T04:20:46;4.30;99.90
2623;DHT22;1321;48.690;9.022;2022-12-07T04:23:14;4.30;99.90
2623;DHT22;1321;48.690;9.022;2022-12-07T04:25:42;4.30;1.00
2623;DHT22;1321;48.690;9.022;2022-12-07T04:28:10;4.30;1.00
2623;DHT22;1321;48.690;9.022;2022-12-07T04:30:39;4.40;86.20
2623;DHT22;1321;48.690;9.022;2022-12-07T04:33:07;4.40;1.00
2623;DHT22;1321;48.690;9.022;2022-12-07T04:35:35;4.40;71.80
2623;DHT22;1321;48.690;9.022;2022-12-07T04:38:05;4.40;99.90
2623;DHT22;1321;48.690;9.022;2022-12-07T04:40:33;4.40;99.90
2623;DHT22;1321;48.690;9.022;2022-12-07T04:43:01;4.30;1.00
2623;DHT22;1321;48.690;9.022;2022-12-07T04:45:29;4.30;1.00
2623;DHT22;1321;48.690;9.022;2022-12-07T04:47:57;4.30;99.90
2623;DHT22;1321;48.690;9.022;2022-12-07T04:50:26;4.40;99.90
2623;DHT22;1321;48.690;9.022;2022-12-07T04:52:54;4.50;99.90
2623;DHT22;1321;48.690;9.022;2022-12-07T04:55:23;4.40;99.90
2623;DHT22;1321;48.690;9.022;2022-12-07T04:57:52;4.30;99.90
2623;DHT22;1321;48.690;9.022;2022-12-07T05:00:20;4.30;40.90
2623;DHT22;1321;48.690;9.022;2022-12-07T05:02:48;4.20;99.90
2623;DHT22;1321;48.690;9.022;2022-12-07T05:05:16;4.20;1.00
2623;DHT22;1321;48.690;9.022;2022-12-07T05:07:44;4.30;99.90
2623;DHT22;1321;48.690;9.022;2022-12-07T05:10:13;4.30;1.00
2623;DHT22;1321;48.690;9.022;2022-12-07T05:12:42;4.40;38.50
2623;DHT22;1321;48.690;9.022;2022-12-07T05:15:10;4.40;1.00
2623;DHT22;1321;48.690;9.022;2022-12-07T05:17:39;4.30;99.90
2623;DHT22;1321;48.690;9.022;2022-12-07T05:20:08;4.30;99.90
2623;DHT22;1321;48.690;9.022;2022-12-07T05:22:36;4.30;99.90
2623;DHT22;1321;48.690;9.022;2022-12-07T05:25:05;4.30;99.90
2623;DHT22;1321;48.690;9.022;2022-12-07T05:27:33;4.20;1.00
2623;DHT22;1321;48.690;9.022;2022-12-07T05:30:04;4.20;99.90
2623;DHT22;1321;48.690;9.022;2022-12-07T05:32:32;4.20;1.00
2623;DHT22;1321;48.690;9.022;2022-12-07T05:35:00;4.20;99.90
2623;DHT22;1321;48.690;9.022;2022-12-07T05:37:29;4.00;99.90
2623;DHT22;1321;48.690;9.022;2022-12-07T05:39:57;4.20;99.90
2623;DHT22;1321;48.690;9.022;2022-12-07T05:42:26;4.00;1.00
2623;DHT22;1321;48.690;9.022;2022-12-07T05:44:54;3.70;99.90
2623;DHT22;1321;48.690;9.022;2022-12-07T05:47:24;3.70;99.90
2623;DHT22;1321;48.690;9.022;2022-12-07T05:49:52;3.60;1.00
2623;DHT22;1321;48.690;9.022;2022-12-07T05:52:20;3.50;99.90
2623;DHT22;1321;48.690;9.022;2022-12-07T05:54:49;3.50;1.00
2623;DHT22;1321;48.690;9.022;2022-12-07T05:57:17;3.50;99.90
2623;DHT22;1321;48.690;9.022;2022-12-07T05:59:45;3.50;1.00
2623;DHT22;1321;48.690;9.022;2022-12-07T06:02:13;3.50;99.90
2623;DHT22;1321;48.690;9.022;2022-12-07T06:04:45;3.50;99.90
2623;DHT22;1321;48.690;9.022;2022-12-07T06:07:15;3.50;99.90
2623;DHT22;1321;48.690;9.022;2022-12-07T06:09:43;3.50;1.00
2623;DHT22;1321;48.690;9.022;2022-12-07T06:12:12;3.50;99.90
2623;DHT22;1321;48.690;9.022;2022-12-07T06:14:59;3.60;99.90
2623;DHT22;1321;48.690;9.022;2022-12-07T06:17:27;3.50;99.90
2623;DHT22;1321;48.690;9.022;2022-12-07T06:19:57;3.50;99.90
2623;DHT22;1321;48.690;9.022;2022-12-07T06:22:26;3.60;99.90
2623;DHT22;1321;48.690;9.022;2022-12-07T06:24:54;3.60;99.90
2623;DHT22;1321;48.690;9.022;2022-12-07T06:27:23;3.60;1.00
2623;DHT22;1321;48.690;9.022;2022-12-07T06:29:51;3.70;1.00
2623;DHT22;1321;48.690;9.022;2022-12-07T06:32:19;3.80;1.00
2623;DHT22;1321;48.690;9.022;2022-12-07T06:34:48;3.70;36.30
2623;DHT22;1321;48.690;9.022;2022-12-07T06:37:17;3.70;99.90
2623;DHT22;1321;48.690;9.022;2022-12-07T06:39:46;3.70;99.90
2623;DHT22;1321;48.690;9.022;2022-12-07T06:42:14;3.70;99.90
2623;DHT22;1321;48.690;9.022;2022-12-07T06:44:42;3.70;27.00
2623;DHT22;1321;48.690;9.022;2022-12-07T06:47:11;3.80;1.00
2623;DHT22;1321;48.690;9.022;2022-12-07T06:50:00;3.70;1.00
2623;DHT22;1321;48.690;9.022;2022-12-07T06:52:30;3.80;1.00
2623;DHT22;1321;48.690;9.022;2022-12-07T06:54:58;3.80;99.90
2623;DHT22;1321;48.690;9.022;2022-12-07T06:57:27;3.80;1.00
2623;DHT22;1321;48.690;9.022;2022-12-07T06:59:56;3.80;96.80
2623;DHT22;1321;48.690;9.022;2022-12-07T07:02:24;3.80;99.90
2623;DHT22;1321;48.690;9.022;2022-12-07T07:04:53;3.90;1.00
2623;DHT22;1321;48.690;9.022;2022-12-07T07:07:21;3.90;1.00
2623;DHT22;1321;48.690;9.022;2022-12-07T07:09:51;3.90;99.90
2623;DHT22;1321;48.690;9.022;2022-12-07T07:12:19;3.90;99.90
2623;DHT22;1321;48.690;9.022;2022-12-07T07:14:47;3.90;67.10
2623;DHT22;1321;48.690;9.022;2022-12-07T07:17:15;4.00;1.00
2623;DHT22;1321;48.690;9.022;2022-12-07T07:19:44;4.00;99.90
2623;DHT22;1321;48.690;9.022;2022-12-07T07:22:12;3.90;1.00
2623;DHT22;1321;48.690;9.022;2022-12-07T07:24:40;3.80;1.00
2623;DHT22;1321;48.690;9.022;2022-12-07T07:27:10;3.90;99.90
2623;DHT22;1321;48.690;9.022;2022-12-07T07:29:38;4.00;1.00
2623;DHT22;1321;48.690;9.022;2022-12-07T07:32:07;3.90;99.90
2623;DHT22;1321;48.690;9.022;2022-12-07T07:34:35;3.90;85.00
2623;DHT22;1321;48.690;9.022;2022-12-07T07:37:04;3.90;99.90
2623;DHT22;1321;48.690;9.022;2022-12-07T07:39:32;3.90;1.00
2623;DHT22;1321;48.690;9.022;2022-12-07T07:42:01;4.00;99.90
2623;DHT22;1321;48.690;9.022;2022-12-07T07:47:01;4.00;99.90
2623;DHT22;1321;48.690;9.022;2022-12-07T07:49:30;3.90;1.00
2623;DHT22;1321;48.690;9.022;2022-12-07T07:51:58;3.90;99.90
2623;DHT22;1321;48.690;9.022;2022-12-07T07:54:26;3.80;1.00
2623;DHT22;1321;48.690;9.022;2022-12-07T07:56:55;3.80;1.00
2623;DHT22;1321;48.690;9.022;2022-12-07T07:59:23;3.90;99.90
2623;DHT22;1321;48.690;9.022;2022-12-07T08:01:53;4.00;1.00
2623;DHT22;1321;48.690;9.022;2022-12-07T08:04:22;4.10;99.90
2623;DHT22;1321;48.690;9.022;2022-12-07T08:06:51;4.10;1.00
2623;DHT22;1321;48.690;9.022;2022-12-07T08:09:20;4.00;99.90
2623;DHT22;1321;48.690;9.022;2022-12-07T08:11:48;4.00;99.90
2623;DHT22;1321;48.690;9.022;2022-12-07T08:14:17;3.90;99.90
2623;DHT22;1321;48.690;9.022;2022-12-07T08:16:45;4.00;1.00
2623;DHT22;1321;48.690;9.022;2022-12-07T08:19:15;4.10;99.90
2623;DHT22;1321;48.690;9.022;2022-12-07T08:21:44;4.10;1.00
2623;DHT22;1321;48.690;9.022;2022-12-07T08:24:12;4.10;99.90
2623;DHT22;1321;48.690;9.022;2022-12-07T08:26:40;4.10;99.90
2623;DHT22;1321;48.690;9.022;2022-12-07T08:29:09;4.20;99.90
2623;DHT22;1321;48.690;9.022;2022-12-07T08:31:38;4.30;99.90
2623;DHT22;1321;48.690;9.022;2022-12-07T08:34:10;4.30;1.00
2623;DHT22;1321;48.690;9.022;2022-12-07T08:36:40;4.30;1.00
2623;DHT22;1321;48.690;9.022;2022-12-07T08:39:08;4.30;1.00
2623;DHT22;1321;48.690;9.022;2022-12-07T08:41:57;4.20;1.00
2623;DHT22;1321;48.690;9.022;2022-12-07T08:44:25;4.20;1.00
2623;DHT22;1321;48.690;9.022;2022-12-07T08:46:57;4.30;1.00
2623;DHT22;1321;48.690;9.022;2022-12-07T08:49:30;4.40;1.00
2623;DHT22;1321;48.690;9.022;2022-12-07T08:52:01;4.30;1.00
2623;DHT22;1321;48.690;9.022;2022-12-07T08:54:33;4.30;1.00
2623;DHT22;1321;48.690;9.022;2022-12-07T08:57:04;4.30;1.00
2623;DHT22;1321;48.690;9.022;2022-12-07T08:59:34;4.40;1.00
2623;DHT22;1321;48.690;9.022;2022-12-07T09:02:04;4.50;99.90
2623;DHT22;1321;48.690;9.022;2022-12-07T09:04:33;4.50;99.90
2623;DHT22;1321;48.690;9.022;2022-12-07T09:07:04;4.50;1.00
2623;DHT22;1321;48.690;9.022;2022-12-07T09:09:33;4.50;1.00
2623;DHT22;1321;48.690;9.022;2022-12-07T09:12:01;4.60;1.00
2623;DHT22;1321;48.690;9.022;2022-12-07T09:14:29;4.70;99.90
2623;DHT22;1321;48.690;9.022;2022-12-07T09:17:05;4.70;99.90
2623;DHT22;1321;48.690;9.022;2022-12-07T09:19:34;4.70;99.90
2623;DHT22;1321;48.690;9.022;2022-12-07T09:22:04;4.70;99.90
2623;DHT22;1321;48.690;9.022;2022-12-07T09:24:33;4.90;99.90
2623;DHT22;1321;48.690;9.022;2022-12-07T09:27:01;4.80;86.00
2623;DHT22;1321;48.690;9.022;2022-12-07T09:29:30;4.80;99.90
2623;DHT22;1321;48.690;9.022;2022-12-07T09:31:58;4.80;46.40
2623;DHT22;1321;48.690;9.022;2022-12-07T09:34:30;4.70;37.60
2623;DHT22;1321;48.690;9.022;2022-12-07T09:37:01;4.80;99.90
2623;DHT22;1321;48.690;9.022;2022-12-07T09:39:31;4.90;75.00
2623;DHT22;1321;48.690;9.022;2022-12-07T09:42:03;5.00;92.20
2623;DHT22;1321;48.690;9.022;2022-12-07T09:44:32;5.00;34.70
2623;DHT22;1321;48.690;9.022;2022-12-07T09:47:01;5.00;26.50
2623;DHT22;1321;48.690;9.022;2022-12-07T09:49:32;5.00;99.90
2623;DHT22;1321;48.690;9.022;2022-12-07T09:52:03;5.10;1.00
2623;DHT22;1321;48.690;9.022;2022-12-07T09:54:35;5.00;36.60
2623;DHT22;1321;48.690;9.022;2022-12-07T09:57:04;4.90;99.90
2623;DHT22;1321;48.690;9.022;2022-12-07T09:59:33;5.00;34.70
2623;DHT22;1321;48.690;9.022;2022-12-07T10:02:28;5.10;1.00
2623;DHT22;1321;48.690;9.022;2022-12-07T10:04:59;5.20;17.10
2623;DHT22;1321;48.690;9.022;2022-12-07T10:07:29;5.20;1.00
2623;DHT22;1321;48.690;9.022;2022-12-07T10:09:59;5.20;1.00
2623;DHT22;1321;48.690;9.022;2022-12-07T10:12:29;5.10;1.00
2623;DHT22;1321;48.690;9.022;2022-12-07T10:15:00;5.20;32.70
2623;DHT22;1321;48.690;9.022;2022-12-07T10:17:38;5.40;1.00
2623;DHT22;1321;48.690;9.022;2022-12-07T10:20:21;5.40;1.00
2623;DHT22;1321;48.690;9.022;2022-12-07T10:22:58;5.50;1.00
2623;DHT22;1321;48.690;9.022;2022-12-07T10:25:31;5.60;1.00
2623;DHT22;1321;48.690;9.022;2022-12-07T10:28:10;5.60;1.00
2623;DHT22;1321;48.690;9.022;2022-12-07T10:30:51;5.60;1.00
2623;DHT22;1321;48.690;9.022;2022-12-07T10:33:30;5.50;1.00
2623;DHT22;1321;48.690;9.022;2022-12-07T10:36:00;5.40;1.00
2623;DHT22;1321;48.690;9.022;2022-12-07T10:38:30;5.30;1.00
2623;DHT22;1321;48.690;9.022;2022-12-07T10:41:06;5.40;1.00
2623;DHT22;1321;48.690;9.022;2022-12-07T10:43:35;5.50;1.00
2623;DHT22;1321;48.690;9.022;2022-12-07T10:52:14;5.40;1.00
2623;DHT22;1321;48.690;9.022;2022-12-07T10:54:53;5.50;1.00
2623;DHT22;1321;48.690;9.022;2022-12-07T10:57:42;5.50;1.00
2623;DHT22;1321;48.690;9.022;2022-12-07T11:00:16;5.50;20.70
2623;DHT22;1321;48.690;9.022;2022-12-07T11:03:17;5.40;1.00
2623;DHT22;1321;48.690;9.022;2022-12-07T11:05:53;5.40;1.00
2623;DHT22;1321;48.690;9.022;2022-12-07T11:08:43;5.50;26.30
2623;DHT22;1321;48.690;9.022;2022-12-07T11:11:16;5.60;99.90
2623;DHT22;1321;48.690;9.022;2022-12-07T11:13:54;5.70;50.70
2623;DHT22;1321;48.690;9.022;2022-12-07T11:16:32;5.70;50.80
2623;DHT22;1321;48.690;9.022;2022-12-07T11:19:24;5.70;1.00
2623;DHT22;1321;48.690;9.022;2022-12-07T11:21:57;5.70;50.50
2623;DHT22;1321;48.690;9.022;2022-12-07T11:24:31;5.70;99.90
2623;DHT22;1321;48.690;9.022;2022-12-07T11:27:10;5.80;56.60
2623;DHT22;1321;48.690;9.022;2022-12-07T11:29:51;5.80;66.90
2623;DHT22;1321;48.690;9.022;2022-12-07T11:32:35;5.80;30.50
2623;DHT22;1321;48.690;9.022;2022-12-07T11:35:11;5.70;51.20
2623;DHT22;1321;48.690;9.022;2022-12-07T11:37:43;5.70;99.90
2623;DHT22;1321;48.690;9.022;2022-12-07T11:40:19;5.70;99.90
2623;DHT22;1321;48.690;9.022;2022-12-07T11:42:53;5.70;76.20
2623;DHT22;1321;48.690;9.022;2022-12-07T11:45:29;5.60;99.90
2623;DHT22;1321;48.690;9.022;2022-12-07T11:48:00;5.70;99.90
2623;DHT22;1321;48.690;9.022;2022-12-07T11:50:36;5.70;99.90
2623;DHT22;1321;48.690;9.022;2022-12-07T11:53:13;5.50;99.90
2623;DHT22;1321;48.690;9.022;2022-12-07T11:55:47;5.50;99.90
2623;DHT22;1321;48.690;9.022;2022-12-07T11:58:35;5.70;99.90
2623;DHT22;1321;48.690;9.022;2022-12-07T12:01:16;5.70;99.90
2623;DHT22;1321;48.690;9.022;2022-12-07T12:03:52;5.60;99.90
2623;DHT22;1321;48.690;9.022;2022-12-07T12:06:21;5.60;99.90
2623;DHT22;1321;48.690;9.022;2022-12-07T12:08:54;5.50;99.90
2623;DHT22;1321;48.690;9.022;2022-12-07T12:12:05;5.50;99.90
2623;DHT22;1321;48.690;9.022;2022-12-07T12:15:08;5.60;99.90
2623;DHT22;1321;48.690;9.022;2022-12-07T12:18:01;5.60;99.90
2623;DHT22;1321;48.690;9.022;2022-12-07T12:20:38;5.50;99.90
2623;DHT22;1321;48.690;9.022;2022-12-07T12:23:13;5.60;99.90
2623;DHT22;1321;48.690;9.022;2022-12-07T12:25:46;5.50;99.90
2623;DHT22;1321;48.690;9.022;2022-12-07T12:28:22;5.50;99.90
2623;DHT22;1321;48.690;9.022;2022-12-07T12:31:06;5.50;99.90
2623;DHT22;1321;48.690;9.022;2022-12-07T12:33:37;5.50;1.00
2623;DHT22;1321;48.690;9.022;2022-12-07T12:36:44;5.50;1.00
2623;DHT22;1321;48.690;9.022;2022-12-07T12:39:14;5.60;1.00
2623;DHT22;1321;48.690;9.022;2022-12-07T12:41:57;5.60;41.30
2623;DHT22;1321;48.690;9.022;2022-12-07T12:50:30;5.70;99.90
2623;DHT22;1321;48.690;9.022;2022-12-07T12:59:23;5.70;99.90
2623;DHT22;1321;48.690;9.022;2022-12-07T13:01:54;5.70;99.90
2623;DHT22;1321;48.690;9.022;2022-12-07T13:04:39;5.70;99.90
2623;DHT22;1321;48.690;9.022;2022-12-07T13:10:28;5.60;99.90
2623;DHT22;1321;48.690;9.022;2022-12-07T13:13:01;5.70;99.90
2623;DHT22;1321;48.690;9.022;2022-12-07T13:15:35;5.70;99.90
2623;DHT22;1321;48.690;9.022;2022-12-07T13:18:23;5.70;99.90
2623;DHT22;1321;48.690;9.022;2022-12-07T13:20:53;5.70;28.60
2623;DHT22;1321;48.690;9.022;2022-12-07T13:23:29;5.70;50.30
2623;DHT22;1321;48.690;9.022;2022-12-07T13:26:14;5.70;99.90
2623;DHT22;1321;48.690;9.022;2022-12-07T13:28:46;5.80;99.90
2623;DHT22;1321;48.690;9.022;2022-12-07T13:31:32;5.80;99.90
2623;DHT22;1321;48.690;9.022;2022-12-07T13:34:02;5.80;99.90
2623;DHT22;1321;48.690;9.022;2022-12-07T13:36:33;5.80;99.90
2623;DHT22;1321;48.690;9.022;2022-12-07T13:39:18;5.90;99.90
2623;DHT22;1321;48.690;9.022;2022-12-07T13:41:50;5.90;99.90
2623;DHT22;1321;48.690;9.022;2022-12-07T13:44:20;5.80;99.90
2623;DHT22;1321;48.690;9.022;2022-12-07T13:46:56;5.80;99.90
2623;DHT22;1321;48.690;9.022;2022-12-07T13:49:27;5.90;1.00
2623;DHT22;1321;48.690;9.022;2022-12-07T13:52:14;5.80;99.90
2623;DHT22;1321;48.690;9.022;2022-12-07T13:54:46;5.80;99.90
2623;DHT22;1321;48.690;9.022;2022-12-07T13:57:15;5.80;93.40
2623;DHT22;1321;48.690;9.022;2022-12-07T13:59:44;5.80;1.00
2623;DHT22;1321;48.690;9.022;2022-12-07T14:02:21;5.90;1.00
2623;DHT22;1321;48.690;9.022;2022-12-07T14:04:50;5.90;1.00
2623;DHT22;1321;48.690;9.022;2022-12-07T14:07:21;5.80;1.00
2623;DHT22;1321;48.690;9.022;2022-12-07T14:09:57;5.80;99.90
2623;DHT22;1321;48.690;9.022;2022-12-07T14:12:26;5.80;1.00
2623;DHT22;1321;48.690;9.022;2022-12-07T14:14:56;5.80;1.00
2623;DHT22;1321;48.690;9.022;2022-12-07T14:17:26;5.70;1.00
2623;DHT22;1321;48.690;9.022;2022-12-07T14:19:56;5.60;1.00
2623;DHT22;1321;48.690;9.022;2022-12-07T14:22:32;5.60;1.00
2623;DHT22;1321;48.690;9.022;2022-12-07T14:25:24;5.60;1.00
2623;DHT22;1321;48.690;9.022;2022-12-07T14:27:55;5.60;1.00
2623;DHT22;1321;48.690;9.022;2022-12-07T14:30:27;5.50;1.00
2623;DHT22;1321;48.690;9.022;2022-12-07T14:32:59;5.50;1.00
2623;DHT22;1321;48.690;9.022;2022-12-07T14:35:29;5.50;1.00
2623;DHT22;1321;48.690;9.022;2022-12-07T14:37:58;5.60;1.00
2623;DHT22;1321;48.690;9.022;2022-12-07T14:40:29;5.60;99.90
2623;DHT22;1321;48.690;9.022;2022-12-07T14:43:00;5.60;99.90
2623;DHT22;1321;48.690;9.022;2022-12-07T14:45:29;5.60;1.00
2623;DHT22;1321;48.690;9.022;2022-12-07T14:47:57;5.50;99.90
2623;DHT22;1321;48.690;9.022;2022-12-07T14:50:49;5.40;1.00
2623;DHT22;1321;48.690;9.022;2022-12-07T14:53:42;5.50;1.00
2623;DHT22;1321;48.690;9.022;2022-12-07T14:56:20;5.50;1.00
2623;DHT22;1321;48.690;9.022;2022-12-07T14:58:48;5.50;1.00
2623;DHT22;1321;48.690;9.022;2022-12-07T15:01:17;5.40;1.00
2623;DHT22;1321;48.690;9.022;2022-12-07T15:03:45;5.40;1.00
2623;DHT22;1321;48.690;9.022;2022-12-07T15:06:15;5.40;1.00
2623;DHT22;1321;48.690;9.022;2022-12-07T15:08:44;5.30;1.00
2623;DHT22;1321;48.690;9.022;2022-12-07T15:11:14;5.40;1.00
2623;DHT22;1321;48.690;9.022;2022-12-07T15:13:44;5.30;1.00
2623;DHT22;1321;48.690;9.022;2022-12-07T15:16:30;5.30;1.00
2623;DHT22;1321;48.690;9.022;2022-12-07T15:19:20;5.40;1.00
2623;DHT22;1321;48.690;9.022;2022-12-07T15:21:57;5.30;1.10
2623;DHT22;1321;48.690;9.022;2022-12-07T15:24:27;5.30;1.00
2623;DHT22;1321;48.690;9.022;2022-12-07T15:26:55;5.40;20.00
2623;DHT22;1321;48.690;9.022;2022-12-07T15:29:25;5.40;99.90
2623;DHT22;1321;48.690;9.022;2022-12-07T15:31:53;5.40;99.90
2623;DHT22;1321;48.690;9.022;2022-12-07T15:34:24;5.40;1.00
2623;DHT22;1321;48.690;9.022;2022-12-07T15:36:53;5.40;1.00
2623;DHT22;1321;48.690;9.022;2022-12-07T15:39:22;5.30;43.80
2623;DHT22;1321;48.690;9.022;2022-12-07T15:41:50;5.50;99.90
2623;DHT22;1321;48.690;9.022;2022-12-07T15:44:19;5.50;12.10
2623;DHT22;1321;48.690;9.022;2022-12-07T15:47:06;5.30;1.00
2623;DHT22;1321;48.690;9.022;2022-12-07T15:49:35;5.30;99.90
2623;DHT22;1321;48.690;9.022;2022-12-07T15:52:03;5.30;99.90
2623;DHT22;1321;48.690;9.022;2022-12-07T15:54:32;5.30;99.90
2623;DHT22;1321;48.690;9.022;2022-12-07T15:57:00;5.30;99.90
2623;DHT22;1321;48.690;9.022;2022-12-07T15:59:29;5.30;99.90
2623;DHT22;1321;48.690;9.022;2022-12-07T16:01:57;5.40;99.90
2623;DHT22;1321;48.690;9.022;2022-12-07T16:04:28;5.30;99.90
2623;DHT22;1321;48.690;9.022;2022-12-07T16:06:57;5.20;1.00
2623;DHT22;1321;48.690;9.022;2022-12-07T16:09:25;5.30;1.00
2623;DHT22;1321;48.690;9.022;2022-12-07T16:11:55;5.20;1.00
2623;DHT22;1321;48.690;9.022;2022-12-07T16:14:23;5.10;99.90
2623;DHT22;1321;48.690;9.022;2022-12-07T16:16:51;5.10;1.00
2623;DHT22;1321;48.690;9.022;2022-12-07T16:19:21;5.00;99.90
2623;DHT22;1321;48.690;9.022;2022-12-07T16:21:50;5.10;85.30
2623;DHT22;1321;48.690;9.022;2022-12-07T16:24:19;5.10;1.00
2623;DHT22;1321;48.690;9.022;2022-12-07T16:26:47;5.10;63.50
2623;DHT22;1321;48.690;9.022;2022-12-07T16:29:17;5.00;1.00
2623;DHT22;1321;48.690;9.022;2022-12-07T16:31:46;4.90;99.90
2623;DHT22;1321;48.690;9.022;2022-12-07T16:34:14;5.00;69.10
2623;DHT22;1321;48.690;9.022;2022-12-07T16:36:43;5.00;1.00
2623;DHT22;1321;48.690;9.022;2022-12-07T16:39:33;5.00;99.90
2623;DHT22;1321;48.690;9.022;2022-12-07T16:42:02;4.90;1.00
2623;DHT22;1321;48.690;9.022;2022-12-07T16:44:30;4.90;99.90
2623;DHT22;1321;48.690;9.022;2022-12-07T16:46:59;4.90;1.00
2623;DHT22;1321;48.690;9.022;2022-12-07T16:49:28;4.80;99.90
2623;DHT22;1321;48.690;9.022;2022-12-07T16:51:56;4.80;99.90
2623;DHT22;1321;48.690;9.022;2022-12-07T16:54:47;4.80;99.90
2623;DHT22;1321;48.690;9.022;2022-12-07T16:57:16;4.70;1.00
2623;DHT22;1321;48.690;9.022;2022-12-07T16:59:50;4.70;99.90
2623;DHT22;1321;48.690;9.022;2022-12-07T17:02:18;4.80;99.90
2623;DHT22;1321;48.690;9.022;2022-12-07T17:04:47;4.80;99.90
2623;DHT22;1321;48.690;9.022;2022-12-07T17:07:15;4.70;99.90
2623;DHT22;1321;48.690;9.022;2022-12-07T17:09:45;4.70;99.90
2623;DHT22;1321;48.690;9.022;2022-12-07T17:12:13;4.70;99.90
2623;DHT22;1321;48.690;9.022;2022-12-07T17:14:42;4.80;99.90
2623;DHT22;1321;48.690;9.022;2022-12-07T17:17:28;4.70;1.00
2623;DHT22;1321;48.690;9.022;2022-12-07T17:19:57;4.80;1.00
2623;DHT22;1321;48.690;9.022;2022-12-07T17:22:25;4.90;1.00